Time;durP1;ratioP1;P1;durP2;ratioP2;P2;SDS_P1;SDS_P2;PMS_P1;PMS_P2;Temp;Humidity;BMP_temperature;BMP_pressure;BME280_temperature;BME280_humidity;BME280_pressure;Samples;Min_cycle;Max_cycle;Signal;HPM_P1;HPM_P2
2023/08/20 00:01:29;;;;;;;0.80;0.50;;;15.20;68.00;;;;;;6245874;22;20012;-76
2023/08/20 00:03:57;;;;;;;0.82;0.73;;;15.30;67.70;;;;;;6271026;22;20000;-73
2023/08/20 00:06:25;;;;;;;1.08;0.77;;;15.30;67.60;;;;;;6244513;22;20012;-73
2023/08/20 00:08:52;;;;;;;2.55;0.57;;;15.30;67.20;;;;;;6272061;22;20338;-70
2023/08/20 00:11:19;;;;;;;0.30;0.30;;;15.30;67.00;;;;;;6245187;22;20135;-70
2023/08/20 00:13:47;;;;;;;0.68;0.52;;;15.40;67.00;;;;;;6269388;22;20006;-72
2023/08/20 00:16:14;;;;;;;0.50;0.50;;;15.50;67.00;;;;;;6243898;22;20094;-75
2023/08/20 00:18:42;;;;;;;1.30;0.70;;;15.60;66.50;;;;;;6269376;22;20008;-72
2023/08/20 00:21:10;;;;;;;0.60;0.50;;;15.60;66.30;;;;;;6244740;22;20308;-73
2023/08/20 00:23:37;;;;;;;0.50;0.50;;;15.70;66.10;;;;;;6270644;22;20011;-73
2023/08/20 00:26:05;;;;;;;0.70;0.40;;;15.70;65.70;;;;;;6270379;22;20007;-75
2023/08/20 00:28:38;;;;;;;0.20;0.20;;;15.70;65.40;;;;;;6269146;22;20042;-74
2023/08/20 00:31:05;;;;;;;1.08;0.73;;;15.70;65.30;;;;;;6270164;22;20049;-71
2023/08/20 00:33:33;;;;;;;2.42;0.70;;;15.80;66.30;;;;;;6272495;22;20307;-75
2023/08/20 00:36:00;;;;;;;0.90;0.73;;;15.80;65.70;;;;;;6270668;22;20496;-74
2023/08/20 00:38:28;;;;;;;0.47;0.47;;;15.90;65.60;;;;;;6270359;22;20077;-71
2023/08/20 00:40:55;;;;;;;1.20;0.70;;;16.00;65.20;;;;;;6269401;22;20030;-74
2023/08/20 00:43:22;;;;;;;17.83;8.68;;;16.00;64.80;;;;;;6272153;22;20007;-74
2023/08/20 00:45:50;;;;;;;6.38;1.85;;;16.20;64.90;;;;;;6245584;22;20008;-77
2023/08/20 00:48:17;;;;;;;0.70;0.70;;;16.20;64.70;;;;;;6219200;22;20077;-73
2023/08/20 00:50:44;;;;;;;0.52;0.50;;;16.20;64.60;;;;;;6269616;22;20386;-76
2023/08/20 00:53:12;;;;;;;0.88;0.60;;;16.30;64.30;;;;;;6244485;22;20431;-79
2023/08/20 00:55:39;;;;;;;1.50;0.60;;;16.40;64.10;;;;;;6245069;22;20066;-76
2023/08/20 00:58:07;;;;;;;0.60;0.50;;;16.40;63.30;;;;;;6268796;22;20042;-76
2023/08/20 01:00:34;;;;;;;1.63;0.68;;;16.40;63.20;;;;;;6269852;22;20033;-75
2023/08/20 01:03:01;;;;;;;0.80;0.50;;;16.50;63.00;;;;;;6271114;22;20003;-75
2023/08/20 01:05:32;;;;;;;0.93;0.82;;;16.50;62.80;;;;;;6271142;22;20154;-72
2023/08/20 01:08:13;;;;;;;0.82;0.70;;;16.50;62.80;;;;;;6270095;22;20019;-75
2023/08/20 01:10:53;;;;;;;1.05;0.80;;;16.60;63.00;;;;;;6247217;22;20087;-77
2023/08/20 01:13:21;;;;;;;1.92;0.50;;;16.60;62.50;;;;;;6271762;22;20103;-73
2023/08/20 01:15:48;;;;;;;2.33;0.73;;;16.70;62.90;;;;;;6244311;22;20339;-75
2023/08/20 01:18:16;;;;;;;0.63;0.63;;;16.70;62.10;;;;;;6270404;22;20007;-74
2023/08/20 01:20:48;;;;;;;0.98;0.70;;;16.70;62.20;;;;;;6270426;22;20347;-76
2023/08/20 01:23:30;;;;;;;0.73;0.73;;;16.80;62.10;;;;;;6271420;22;20015;-76
2023/08/20 01:26:17;;;;;;;1.00;0.57;;;16.80;62.10;;;;;;6269700;22;20004;-76
2023/08/20 01:28:45;;;;;;;1.40;0.70;;;16.80;61.70;;;;;;6268177;22;20011;-74
2023/08/20 01:31:12;;;;;;;0.77;0.60;;;16.90;61.60;;;;;;6244221;22;20003;-75
2023/08/20 01:33:39;;;;;;;1.25;0.68;;;16.90;62.00;;;;;;6244238;22;20014;-74
2023/08/20 01:36:11;;;;;;;1.13;0.80;;;17.00;62.30;;;;;;6269357;22;20334;-72
2023/08/20 01:38:38;;;;;;;0.63;0.63;;;17.00;61.40;;;;;;6244847;22;20012;-72
2023/08/20 01:41:06;;;;;;;0.75;0.70;;;17.00;61.40;;;;;;6267844;22;20007;-72
2023/08/20 01:43:34;;;;;;;2.85;0.90;;;17.00;61.80;;;;;;6268507;22;20003;-72
2023/08/20 01:46:01;;;;;;;1.95;1.00;;;17.10;61.50;;;;;;6268911;22;20027;-75
2023/08/20 01:48:28;;;;;;;1.50;0.90;;;17.10;61.70;;;;;;6271341;22;20434;-74
2023/08/20 01:50:56;;;;;;;1.42;1.00;;;17.20;61.40;;;;;;6242644;22;20012;-74
2023/08/20 01:53:23;;;;;;;0.95;0.80;;;17.20;61.30;;;;;;6272253;22;20079;-72
2023/08/20 01:55:50;;;;;;;2.25;1.00;;;17.20;61.80;;;;;;6272736;22;20373;-72
2023/08/20 01:58:17;;;;;;;1.40;1.00;;;17.20;60.60;;;;;;6269358;22;20003;-72
2023/08/20 02:00:46;;;;;;;0.90;0.80;;;17.20;60.50;;;;;;6273238;22;20008;-76
2023/08/20 02:03:13;;;;;;;0.52;0.50;;;17.20;60.60;;;;;;6273687;22;20046;-76
2023/08/20 02:05:41;;;;;;;1.35;0.75;;;17.30;59.90;;;;;;6273479;22;20010;-74
2023/08/20 02:08:08;;;;;;;0.90;0.75;;;17.30;59.70;;;;;;6273315;22;20172;-74
2023/08/20 02:10:36;;;;;;;0.60;0.60;;;17.30;59.90;;;;;;6273088;22;20334;-73
2023/08/20 02:13:04;;;;;;;1.85;0.70;;;17.30;59.00;;;;;;6271144;22;19999;-72
2023/08/20 02:15:31;;;;;;;0.80;0.70;;;17.30;58.40;;;;;;6271024;22;20073;-73
2023/08/20 02:18:00;;;;;;;1.35;0.70;;;17.30;57.40;;;;;;6270041;22;20007;-71
2023/08/20 02:20:28;;;;;;;0.73;0.50;;;17.30;56.60;;;;;;6273654;22;20031;-72
2023/08/20 02:22:55;;;;;;;0.38;0.38;;;17.30;53.90;;;;;;6270758;22;20224;-71
2023/08/20 02:25:24;;;;;;;0.80;0.65;;;17.30;53.90;;;;;;6271701;22;20004;-70
2023/08/20 02:27:52;;;;;;;1.05;0.60;;;17.30;55.00;;;;;;6273147;22;20071;-71
2023/08/20 02:30:19;;;;;;;0.80;0.50;;;17.30;54.10;;;;;;6269483;22;20012;-72
2023/08/20 02:32:46;;;;;;;2.50;0.80;;;17.30;54.80;;;;;;6272682;22;20691;-74
2023/08/20 02:35:16;;;;;;;2.30;0.52;;;17.40;54.30;;;;;;6272359;22;20083;-74
2023/08/20 02:37:43;;;;;;;0.93;0.70;;;17.40;54.40;;;;;;6272797;22;20003;-73
2023/08/20 02:40:13;;;;;;;0.70;0.70;;;17.50;54.60;;;;;;6270522;22;20003;-72
2023/08/20 02:42:40;;;;;;;0.85;0.70;;;17.50;54.30;;;;;;6273143;22;20008;-71
2023/08/20 02:45:08;;;;;;;0.98;0.90;;;17.50;54.90;;;;;;6270660;22;20048;-71
2023/08/20 02:47:36;;;;;;;0.90;0.80;;;17.50;55.00;;;;;;6272741;22;20007;-73
2023/08/20 02:50:04;;;;;;;0.65;0.65;;;17.60;54.30;;;;;;6272713;22;20103;-72
2023/08/20 02:52:31;;;;;;;0.70;0.70;;;17.60;55.30;;;;;;6272613;22;20077;-75
2023/08/20 02:54:58;;;;;;;0.77;0.75;;;17.60;54.90;;;;;;6273716;22;20070;-76
2023/08/20 02:57:26;;;;;;;1.08;0.65;;;17.60;55.40;;;;;;6270637;22;20019;-75
2023/08/20 02:59:53;;;;;;;0.70;0.70;;;17.70;55.20;;;;;;6272410;22;20419;-73
2023/08/20 03:02:20;;;;;;;0.93;0.70;;;17.70;55.40;;;;;;6272852;22;20010;-72
2023/08/20 03:04:48;;;;;;;2.58;0.98;;;17.70;55.00;;;;;;6272205;22;20003;-77
2023/08/20 03:07:15;;;;;;;2.13;0.68;;;17.70;55.20;;;;;;6271989;22;20046;-75
2023/08/20 03:09:42;;;;;;;1.42;0.80;;;17.70;55.40;;;;;;6275375;22;20002;-76
2023/08/20 03:12:10;;;;;;;0.80;0.75;;;17.70;54.90;;;;;;6276225;22;20031;-75
2023/08/20 03:14:37;;;;;;;0.47;0.47;;;17.70;54.30;;;;;;6274888;22;20074;-75
2023/08/20 03:17:05;;;;;;;1.05;0.65;;;17.70;54.00;;;;;;6273494;22;20015;-75
2023/08/20 03:19:35;;;;;;;0.70;0.60;;;17.70;54.10;;;;;;6274687;22;20032;-73
2023/08/20 03:22:02;;;;;;;1.00;0.68;;;17.70;54.90;;;;;;6273549;22;20003;-75
2023/08/20 03:24:30;;;;;;;0.80;0.80;;;17.70;55.20;;;;;;6275928;22;20415;-75
2023/08/20 03:26:57;;;;;;;0.85;0.73;;;17.70;54.40;;;;;;6274932;22;20020;-75
2023/08/20 03:29:24;;;;;;;0.82;0.60;;;17.70;53.50;;;;;;6275649;22;20445;-76
2023/08/20 03:31:52;;;;;;;0.82;0.63;;;17.70;54.10;;;;;;6273386;22;20003;-77
2023/08/20 03:34:19;;;;;;;0.80;0.77;;;17.70;54.40;;;;;;6276173;22;20003;-78
2023/08/20 03:36:46;;;;;;;0.70;0.70;;;17.80;54.20;;;;;;6276275;22;20033;-77
2023/08/20 03:39:14;;;;;;;0.57;0.57;;;17.70;54.70;;;;;;6273960;22;20335;-77
2023/08/20 03:41:41;;;;;;;0.65;0.60;;;17.80;55.20;;;;;;6274130;22;20007;-79
2023/08/20 03:44:09;;;;;;;2.35;0.80;;;17.80;54.90;;;;;;6275498;22;20034;-77
2023/08/20 03:46:36;;;;;;;1.05;0.95;;;17.80;54.40;;;;;;6248345;22;20031;-73
2023/08/20 03:49:04;;;;;;;1.20;1.00;;;18.00;54.00;;;;;;6274950;22;20085;-72
2023/08/20 03:51:31;;;;;;;2.08;1.00;;;18.00;55.30;;;;;;6274443;22;20008;-68
2023/08/20 03:53:58;;;;;;;2.13;1.20;;;18.00;54.60;;;;;;6275524;22;19999;-77
2023/08/20 03:56:26;;;;;;;1.05;0.93;;;18.10;54.20;;;;;;6274907;22;20011;-72
2023/08/20 03:58:53;;;;;;;1.33;0.90;;;18.10;53.20;;;;;;6271705;22;20006;-75
2023/08/20 04:01:20;;;;;;;1.00;0.90;;;18.20;52.60;;;;;;6272597;22;20027;-75
2023/08/20 04:03:48;;;;;;;2.22;1.10;;;18.20;53.30;;;;;;6271159;22;20193;-75
2023/08/20 04:06:15;;;;;;;1.48;1.00;;;18.20;52.90;;;;;;6270762;22;20003;-76
2023/08/20 04:08:43;;;;;;;3.05;1.00;;;18.20;53.10;;;;;;6271913;22;20011;-76
2023/08/20 04:11:10;;;;;;;2.10;0.90;;;18.20;53.30;;;;;;6273008;22;20018;-74
2023/08/20 04:13:39;;;;;;;1.90;0.75;;;18.10;52.90;;;;;;6272258;22;20063;-75
2023/08/20 04:16:07;;;;;;;2.30;0.70;;;18.20;52.70;;;;;;6272011;22;20461;-78
2023/08/20 04:18:34;;;;;;;1.38;0.93;;;18.20;52.00;;;;;;6271950;22;19996;-83
2023/08/20 04:21:02;;;;;;;1.50;0.90;;;18.20;52.50;;;;;;6272000;22;20126;-77
2023/08/20 04:23:29;;;;;;;1.05;0.70;;;18.20;51.20;;;;;;6270715;22;20007;-75
2023/08/20 04:25:56;;;;;;;2.58;0.55;;;18.20;51.20;;;;;;6272789;22;20008;-81
2023/08/20 04:28:23;;;;;;;3.97;0.70;;;18.20;51.20;;;;;;6271386;22;20027;-78
2023/08/20 04:30:57;;;;;;;1.63;0.77;;;18.20;50.20;;;;;;6270342;22;20343;-78
2023/08/20 04:33:25;;;;;;;3.70;0.80;;;18.20;50.40;;;;;;6245955;22;20087;-77
2023/08/20 04:35:52;;;;;;;2.08;0.77;;;18.20;51.30;;;;;;6270268;22;20019;-78
2023/08/20 04:38:19;;;;;;;0.75;0.70;;;18.10;51.90;;;;;;6271325;22;20427;-76
2023/08/20 04:40:50;;;;;;;4.35;0.90;;;18.10;50.30;;;;;;6272348;22;20000;-77
2023/08/20 04:43:17;;;;;;;1.25;0.68;;;18.20;51.00;;;;;;6270978;22;20003;-79
2023/08/20 04:45:45;;;;;;;3.75;0.90;;;18.20;50.70;;;;;;6269655;22;20011;-76
2023/08/20 04:48:12;;;;;;;0.80;0.60;;;18.20;50.40;;;;;;6271417;22;20004;-77
2023/08/20 04:50:39;;;;;;;2.88;0.90;;;18.20;50.60;;;;;;6271732;22;20027;-81
2023/08/20 04:53:06;;;;;;;0.75;0.65;;;18.20;51.00;;;;;;6271631;22;20000;-79
2023/08/20 04:55:34;;;;;;;1.55;0.40;;;18.10;50.60;;;;;;6271769;22;20008;-77
2023/08/20 04:58:02;;;;;;;1.48;0.57;;;18.10;50.30;;;;;;6271461;22;20462;-75
2023/08/20 05:00:29;;;;;;;1.23;0.65;;;18.10;51.00;;;;;;6272240;22;20007;-76
2023/08/20 05:02:56;;;;;;;3.25;0.75;;;18.10;51.40;;;;;;6271065;22;20038;-77
2023/08/20 05:05:24;;;;;;;2.67;0.52;;;18.10;51.40;;;;;;6245472;22;20010;-77
2023/08/20 05:07:52;;;;;;;1.50;1.10;;;18.10;50.60;;;;;;6271730;22;20019;-79
2023/08/20 05:10:20;;;;;;;1.65;0.75;;;18.10;51.30;;;;;;6271207;22;19995;-76
2023/08/20 05:12:47;;;;;;;2.78;0.80;;;18.00;51.90;;;;;;6271758;22;19999;-76
2023/08/20 05:15:15;;;;;;;0.50;0.50;;;18.00;52.10;;;;;;6271846;22;20004;-79
2023/08/20 05:17:42;;;;;;;1.25;0.63;;;18.00;51.30;;;;;;6271107;22;20004;-77
2023/08/20 05:20:10;;;;;;;1.45;0.77;;;18.10;50.80;;;;;;6270480;22;20014;-77
2023/08/20 05:22:37;;;;;;;4.53;1.30;;;18.00;50.50;;;;;;6271848;22;20004;-78
2023/08/20 05:25:05;;;;;;;3.78;0.98;;;18.00;50.60;;;;;;6272001;22;20346;-77
2023/08/20 05:27:32;;;;;;;2.35;0.90;;;18.00;49.90;;;;;;6245455;22;20004;-76
2023/08/20 05:29:59;;;;;;;2.53;1.15;;;18.00;51.10;;;;;;6274352;22;20038;-75
2023/08/20 05:32:27;;;;;;;1.00;0.70;;;18.00;50.60;;;;;;6274163;22;20027;-75
2023/08/20 05:34:54;;;;;;;3.30;0.80;;;18.00;51.60;;;;;;6274219;22;20000;-75
2023/08/20 05:37:21;;;;;;;0.63;0.63;;;18.00;52.20;;;;;;6274320;22;20043;-76
2023/08/20 05:39:49;;;;;;;1.88;0.82;;;18.00;53.70;;;;;;6273380;22;20338;-75
2023/08/20 05:42:16;;;;;;;1.42;0.80;;;17.90;53.20;;;;;;6274286;22;20015;-78
2023/08/20 05:44:43;;;;;;;1.08;0.70;;;17.90;53.40;;;;;;6273568;22;20319;-75
2023/08/20 05:47:11;;;;;;;2.70;0.95;;;17.90;52.50;;;;;;6270836;22;20004;-75
2023/08/20 05:49:38;;;;;;;3.28;0.80;;;17.90;53.30;;;;;;6274368;22;19999;-73
2023/08/20 05:52:05;;;;;;;1.42;0.80;;;17.90;52.90;;;;;;6274044;22;20004;-82
2023/08/20 05:54:32;;;;;;;1.25;0.70;;;17.90;53.00;;;;;;6274127;22;20000;-77
2023/08/20 05:57:01;;;;;;;3.00;0.80;;;17.80;53.50;;;;;;6273292;22;20087;-75
2023/08/20 05:59:28;;;;;;;6.00;0.90;;;17.80;52.80;;;;;;6273679;22;19999;-77
2023/08/20 06:01:55;;;;;;;5.50;0.90;;;17.80;53.50;;;;;;6273672;22;20012;-75
2023/08/20 06:04:23;;;;;;;1.20;0.52;;;17.80;51.50;;;;;;6272395;22;20005;-77
2023/08/20 06:06:50;;;;;;;3.35;0.70;;;17.80;52.20;;;;;;6220371;22;20043;-76
2023/08/20 06:09:17;;;;;;;1.55;0.90;;;17.80;51.90;;;;;;6246527;22;20083;-75
2023/08/20 06:11:44;;;;;;;3.60;0.75;;;17.70;52.50;;;;;;6271957;22;20003;-75
2023/08/20 06:14:11;;;;;;;2.70;0.80;;;17.70;52.80;;;;;;6272152;22;20007;-73
2023/08/20 06:16:39;;;;;;;3.00;1.00;;;17.70;53.20;;;;;;6273100;22;20019;-73
2023/08/20 06:19:06;;;;;;;0.88;0.77;;;17.70;53.90;;;;;;6271864;22;19995;-73
2023/08/20 06:21:33;;;;;;;1.50;0.80;;;17.70;54.50;;;;;;6271481;22;20007;-73
2023/08/20 06:24:01;;;;;;;0.85;0.70;;;17.60;54.90;;;;;;6271816;22;19992;-74
2023/08/20 06:26:28;;;;;;;0.73;0.50;;;17.60;55.30;;;;;;6272147;22;20008;-76
2023/08/20 06:28:55;;;;;;;1.38;0.65;;;17.50;55.20;;;;;;6271211;22;20501;-74
2023/08/20 06:31:23;;;;;;;1.30;0.85;;;17.50;55.40;;;;;;6273260;22;20010;-75
2023/08/20 06:33:50;;;;;;;1.63;0.80;;;17.50;55.60;;;;;;6272244;22;20323;-72
2023/08/20 06:36:17;;;;;;;1.70;0.70;;;17.50;55.30;;;;;;6273348;22;20016;-73
2023/08/20 06:38:44;;;;;;;0.80;0.63;;;17.50;55.30;;;;;;6273050;22;20113;-72
2023/08/20 06:41:12;;;;;;;1.27;0.90;;;17.40;55.20;;;;;;6272994;22;20000;-72
2023/08/20 06:43:39;;;;;;;4.38;0.70;;;17.40;55.20;;;;;;6271670;22;20427;-72
2023/08/20 06:46:06;;;;;;;1.10;0.50;;;17.30;55.00;;;;;;6269173;22;20011;-72
2023/08/20 06:48:33;;;;;;;1.27;0.57;;;17.40;54.90;;;;;;6246168;22;20000;-71
2023/08/20 06:51:12;;;;;;;2.35;0.60;;;17.30;55.50;;;;;;6272881;22;20008;-71
2023/08/20 06:53:40;;;;;;;1.27;0.73;;;17.30;55.90;;;;;;6245574;22;20382;-71
2023/08/20 06:56:08;;;;;;;0.75;0.52;;;17.30;55.90;;;;;;6273007;22;20034;-73
2023/08/20 11:05:07;;;;;;;3.70;1.80;;;15.50;74.10;;;;;;6271806;22;20103;-73
2023/08/20 11:07:35;;;;;;;4.10;1.90;;;15.40;74.20;;;;;;6271379;22;20061;-76
2023/08/20 11:10:03;;;;;;;6.45;2.65;;;15.40;74.30;;;;;;6246515;22;20000;-76
2023/08/20 11:12:31;;;;;;;4.45;2.30;;;15.40;74.50;;;;;;6221120;22;20004;-76
2023/08/20 11:15:02;;;;;;;3.38;1.88;;;15.40;74.50;;;;;;6245817;22;20008;-77
2023/08/20 11:17:30;;;;;;;2.78;1.80;;;15.40;74.40;;;;;;6271401;22;20016;-74
2023/08/20 11:19:57;;;;;;;4.75;2.08;;;15.50;74.60;;;;;;6270922;22;20000;-76
2023/08/20 11:22:24;;;;;;;7.28;2.53;;;15.40;74.50;;;;;;6270746;22;20410;-75
2023/08/20 11:24:51;;;;;;;5.18;2.10;;;15.40;74.60;;;;;;6270516;22;20103;-76
2023/08/20 11:27:18;;;;;;;4.20;1.70;;;15.40;74.90;;;;;;6272563;22;20003;-78
2023/08/20 11:29:46;;;;;;;4.90;1.80;;;15.40;75.00;;;;;;6272506;22;20672;-79
2023/08/20 11:32:13;;;;;;;4.47;2.00;;;15.30;75.00;;;;;;6272292;22;20007;-81
2023/08/20 11:34:41;;;;;;;4.70;2.17;;;15.30;75.10;;;;;;6245712;22;20023;-79
2023/08/20 11:37:09;;;;;;;5.93;1.95;;;15.30;75.20;;;;;;6270219;22;20494;-82
2023/08/20 11:39:37;;;;;;;4.03;1.90;;;15.20;75.40;;;;;;6271203;22;20002;-79
2023/08/20 11:42:06;;;;;;;4.90;2.05;;;15.20;75.60;;;;;;6245823;22;20034;-78
2023/08/20 11:44:44;;;;;;;4.88;1.90;;;15.20;75.60;;;;;;6245474;22;19996;-76
2023/08/20 11:47:17;;;;;;;4.45;2.08;;;15.20;75.90;;;;;;6267394;22;20003;-77
2023/08/20 11:49:45;;;;;;;2.63;1.88;;;15.10;76.30;;;;;;6270545;22;20000;-78
2023/08/20 11:52:17;;;;;;;4.82;2.28;;;15.10;76.40;;;;;;6245935;22;20465;-76
2023/08/20 11:54:44;;;;;;;3.97;1.75;;;15.10;76.60;;;;;;6272663;22;20003;-78
2023/08/20 11:57:11;;;;;;;3.13;1.83;;;15.10;76.60;;;;;;6270322;22;20023;-77
2023/08/20 11:59:38;;;;;;;3.33;1.80;;;15.00;76.80;;;;;;6272502;22;20002;-78
2023/08/20 12:02:06;;;;;;;3.05;2.05;;;15.00;76.90;;;;;;6245736;22;20011;-76
2023/08/20 12:04:33;;;;;;;3.95;1.98;;;15.00;77.00;;;;;;6270891;22;20477;-79
2023/08/20 12:07:14;;;;;;;6.07;2.10;;;15.00;77.00;;;;;;6270124;22;20007;-85
2023/08/20 12:09:41;;;;;;;4.35;1.98;;;15.00;77.00;;;;;;6270858;22;20006;-78
2023/08/20 12:12:09;;;;;;;4.93;2.20;;;14.90;77.10;;;;;;6271225;22;20015;-78
2023/08/20 12:14:37;;;;;;;5.70;2.22;;;14.80;77.30;;;;;;6270991;22;20122;-72
2023/08/20 12:17:04;;;;;;;5.18;2.40;;;14.80;77.40;;;;;;6245123;22;20031;-76
2023/08/20 12:19:31;;;;;;;5.47;2.45;;;14.70;77.60;;;;;;6270951;22;20002;-75
2023/08/20 12:21:58;;;;;;;3.10;2.10;;;14.70;77.80;;;;;;6245170;22;20451;-77
2023/08/20 12:24:26;;;;;;;3.67;2.22;;;14.50;78.00;;;;;;6272865;22;20031;-75
2023/08/20 12:26:53;;;;;;;3.25;2.28;;;14.50;78.20;;;;;;6271092;22;20008;-75
2023/08/20 12:29:20;;;;;;;5.15;2.22;;;14.50;78.30;;;;;;6272672;22;20115;-76
2023/08/20 12:31:47;;;;;;;5.75;2.35;;;14.60;78.40;;;;;;6271109;22;20008;-75
2023/08/20 12:34:14;;;;;;;7.78;2.40;;;14.60;78.40;;;;;;6271582;22;20019;-75
2023/08/20 12:36:42;;;;;;;3.63;2.00;;;14.70;77.90;;;;;;6243722;22;20020;-75
2023/08/20 12:39:09;;;;;;;2.75;1.90;;;14.70;77.80;;;;;;6270453;22;19999;-76
2023/08/20 12:41:36;;;;;;;3.95;2.22;;;14.70;78.20;;;;;;6245770;22;20008;-76
2023/08/20 12:44:04;;;;;;;4.68;2.30;;;14.70;78.70;;;;;;6270267;22;20000;-77
2023/08/20 12:46:31;;;;;;;4.60;1.98;;;14.60;79.00;;;;;;6267039;22;20172;-76
2023/08/20 12:48:59;;;;;;;2.78;1.90;;;14.60;78.70;;;;;;6270357;22;20446;-73
2023/08/20 12:51:27;;;;;;;5.53;2.00;;;14.70;78.50;;;;;;6270415;22;20418;-74
2023/08/20 12:53:54;;;;;;;4.32;2.35;;;14.70;78.40;;;;;;6245339;22;20050;-73
2023/08/20 12:56:21;;;;;;;4.80;2.22;;;14.70;78.30;;;;;;6270004;22;20012;-76
2023/08/20 12:58:49;;;;;;;7.07;2.50;;;14.60;78.20;;;;;;6246608;22;20034;-74
2023/08/20 13:01:17;;;;;;;4.60;2.55;;;14.50;78.20;;;;;;6273267;22;20054;-73
2023/08/20 13:03:44;;;;;;;4.63;2.55;;;14.50;78.40;;;;;;6273137;22;20004;-71
2023/08/20 13:06:12;;;;;;;4.80;2.80;;;14.50;78.50;;;;;;6274246;22;19988;-73
2023/08/20 13:08:39;;;;;;;5.22;2.72;;;14.50;78.50;;;;;;6275831;22;20004;-73
2023/08/20 13:11:06;;;;;;;6.40;2.60;;;14.60;78.40;;;;;;6273339;22;20000;-73
2023/08/20 13:13:34;;;;;;;4.65;2.85;;;14.50;78.40;;;;;;6222648;22;20007;-73
2023/08/20 13:16:02;;;;;;;4.57;2.90;;;14.50;78.50;;;;;;6274885;22;20016;-73
2023/08/20 13:18:29;;;;;;;5.90;3.03;;;14.50;78.60;;;;;;6273565;22;20378;-72
2023/08/20 13:20:56;;;;;;;6.40;2.88;;;14.50;78.60;;;;;;6248929;22;20384;-73
2023/08/20 13:23:24;;;;;;;4.47;2.85;;;14.50;78.70;;;;;;6275145;22;20083;-73
2023/08/20 13:25:51;;;;;;;7.25;2.67;;;14.60;78.70;;;;;;6273523;22;19996;-73
2023/08/20 13:28:18;;;;;;;5.43;2.70;;;14.50;78.60;;;;;;6272795;22;20011;-73
2023/08/20 13:30:45;;;;;;;5.07;2.85;;;14.50;78.60;;;;;;6275379;22;20003;-73
2023/08/20 13:33:14;;;;;;;7.95;2.70;;;14.60;78.60;;;;;;6273893;22;20035;-72
2023/08/20 13:35:42;;;;;;;9.65;2.40;;;14.60;78.70;;;;;;6272365;22;20095;-73
2023/08/20 13:38:09;;;;;;;4.10;2.10;;;14.60;78.60;;;;;;6272922;22;20382;-73
2023/08/20 13:40:36;;;;;;;4.18;2.30;;;14.60;78.60;;;;;;6275089;22;20431;-73
2023/08/20 13:43:03;;;;;;;5.00;2.40;;;14.60;78.30;;;;;;6247757;22;20492;-73
2023/08/20 13:45:31;;;;;;;4.88;2.33;;;14.60;78.20;;;;;;6273121;22;20027;-72
2023/08/20 13:47:59;;;;;;;3.83;1.95;;;14.60;78.30;;;;;;6275403;22;20004;-73
2023/08/20 13:50:26;;;;;;;4.03;2.03;;;14.60;78.30;;;;;;6275804;22;19996;-72
2023/08/20 13:52:53;;;;;;;5.57;2.30;;;14.50;78.50;;;;;;6275769;22;20030;-71
2023/08/20 13:55:21;;;;;;;3.67;2.20;;;14.50;78.40;;;;;;6274835;22;20003;-73
2023/08/20 13:57:48;;;;;;;4.55;2.00;;;14.50;78.70;;;;;;6274851;22;20449;-73
2023/08/20 14:00:16;;;;;;;5.18;2.20;;;14.40;78.90;;;;;;6249383;22;20002;-73
2023/08/20 14:02:43;;;;;;;5.93;1.92;;;14.40;79.00;;;;;;6277498;22;20006;-73
2023/08/20 14:05:10;;;;;;;4.35;2.03;;;14.30;79.20;;;;;;6249732;22;20454;-73
2023/08/20 14:07:38;;;;;;;4.47;2.13;;;14.40;79.30;;;;;;6276681;22;20004;-73
2023/08/20 14:10:06;;;;;;;7.00;1.95;;;14.30;79.40;;;;;;6275640;22;19999;-73
2023/08/20 14:12:33;;;;;;;5.03;2.30;;;14.30;79.40;;;;;;6275661;22;20000;-73
2023/08/20 14:15:00;;;;;;;3.00;2.17;;;14.30;79.40;;;;;;6276088;22;20386;-72
2023/08/20 14:17:28;;;;;;;6.85;2.30;;;14.30;79.50;;;;;;6275278;22;20011;-73
2023/08/20 14:19:56;;;;;;;6.10;2.28;;;14.30;79.50;;;;;;6275415;22;19996;-73
2023/08/20 14:22:23;;;;;;;4.60;2.30;;;14.20;79.60;;;;;;6277464;22;20056;-73
2023/08/20 14:24:50;;;;;;;4.97;2.42;;;14.20;79.50;;;;;;6274265;22;20327;-73
2023/08/20 14:27:18;;;;;;;5.25;2.20;;;14.20;79.60;;;;;;6276237;22;20006;-73
2023/08/20 14:29:45;;;;;;;5.95;2.30;;;14.20;79.90;;;;;;6274937;22;20011;-73
2023/08/20 14:32:12;;;;;;;4.88;2.33;;;14.20;80.00;;;;;;6249943;22;20435;-73
2023/08/20 14:34:39;;;;;;;5.65;2.45;;;14.30;79.90;;;;;;6273225;22;20027;-73
2023/08/20 14:37:07;;;;;;;6.10;2.47;;;14.30;80.00;;;;;;6275140;22;20031;-72
2023/08/20 14:39:34;;;;;;;5.60;2.47;;;14.20;80.40;;;;;;6274814;22;20010;-73
2023/08/20 14:42:02;;;;;;;3.55;2.30;;;14.20;80.60;;;;;;6276744;22;20004;-73
2023/08/20 14:44:29;;;;;;;4.15;2.20;;;14.20;80.70;;;;;;6276212;22;20000;-72
2023/08/20 14:46:56;;;;;;;5.82;2.17;;;14.20;80.60;;;;;;6275209;22;20006;-72
2023/08/20 14:49:24;;;;;;;6.18;2.35;;;14.30;80.60;;;;;;6275424;22;20038;-73
2023/08/20 14:51:51;;;;;;;4.40;2.00;;;14.30;80.60;;;;;;6276686;22;20004;-73
2023/08/20 14:54:18;;;;;;;4.47;1.95;;;14.40;80.60;;;;;;6249252;22;20441;-73
2023/08/20 14:56:45;;;;;;;4.45;2.00;;;14.30;80.90;;;;;;6274560;22;20027;-73
2023/08/20 14:59:13;;;;;;;3.13;2.00;;;14.30;81.30;;;;;;6276504;22;20032;-72
2023/08/20 15:01:40;;;;;;;4.57;2.00;;;14.30;81.20;;;;;;6276286;22;20015;-73
2023/08/20 15:04:07;;;;;;;5.00;2.20;;;14.40;81.30;;;;;;6275965;22;20003;-73
2023/08/20 15:06:35;;;;;;;3.20;1.73;;;14.40;81.10;;;;;;6275987;22;20322;-73
2023/08/20 15:09:03;;;;;;;4.93;2.00;;;14.50;81.00;;;;;;6275076;22;20004;-73
2023/08/20 15:11:30;;;;;;;4.35;1.88;;;14.40;80.90;;;;;;6275238;22;19999;-73
2023/08/20 15:13:57;;;;;;;3.47;1.90;;;14.50;81.00;;;;;;6249472;22;20411;-73
2023/08/20 15:16:24;;;;;;;6.20;1.90;;;14.40;81.00;;;;;;6276126;22;20015;-73
2023/08/20 15:18:51;;;;;;;7.68;1.90;;;14.40;80.90;;;;;;6276016;22;20003;-73
2023/08/20 15:21:19;;;;;;;4.18;2.10;;;14.40;80.80;;;;;;6274856;22;19996;-73
2023/08/20 15:23:46;;;;;;;3.20;2.00;;;14.30;80.90;;;;;;6274810;22;20343;-72
2023/08/20 15:26:13;;;;;;;2.70;2.10;;;14.30;81.10;;;;;;6275945;22;20004;-73
2023/08/20 15:28:40;;;;;;;3.50;2.17;;;14.20;81.20;;;;;;6276150;22;20004;-73
2023/08/20 15:31:07;;;;;;;4.95;2.08;;;14.20;81.30;;;;;;6274659;22;20010;-73
2023/08/20 15:33:35;;;;;;;6.25;2.10;;;14.20;81.30;;;;;;6274576;22;20012;-73
2023/08/20 15:36:02;;;;;;;3.60;2.10;;;14.20;81.30;;;;;;6275916;22;20074;-73
2023/08/20 15:38:29;;;;;;;7.55;2.40;;;14.20;81.50;;;;;;6274680;22;20008;-73
2023/08/20 15:40:58;;;;;;;5.45;2.03;;;14.20;81.70;;;;;;6274734;22;20334;-73
2023/08/20 15:43:25;;;;;;;3.15;1.92;;;14.20;81.80;;;;;;6273701;22;20008;-73
2023/08/20 15:45:52;;;;;;;3.67;2.00;;;14.30;81.80;;;;;;6274188;22;20003;-73
2023/08/20 15:48:19;;;;;;;4.53;1.80;;;14.30;81.80;;;;;;6273107;22;20419;-73
2023/08/20 15:50:47;;;;;;;3.13;1.50;;;14.40;82.00;;;;;;6274339;22;20032;-73
2023/08/20 15:53:14;;;;;;;3.90;1.70;;;14.30;82.00;;;;;;6274620;22;20011;-73
2023/08/20 15:55:41;;;;;;;4.40;1.73;;;14.40;82.00;;;;;;6274291;22;20000;-73
2023/08/20 15:58:08;;;;;;;3.50;1.75;;;14.40;82.00;;;;;;6274368;22;19999;-73
2023/08/20 16:00:36;;;;;;;4.60;1.55;;;14.40;82.20;;;;;;6274251;22;20470;-73
2023/08/20 16:03:03;;;;;;;4.78;1.90;;;14.40;82.20;;;;;;6223622;22;20723;-72
2023/08/20 16:05:30;;;;;;;4.25;2.13;;;14.40;82.30;;;;;;6275963;22;20042;-73
2023/08/20 16:07:58;;;;;;;3.80;2.17;;;14.40;82.50;;;;;;6275716;22;20007;-72
2023/08/20 16:10:25;;;;;;;2.75;1.90;;;14.30;82.60;;;;;;6274302;22;20031;-71
2023/08/20 16:12:52;;;;;;;3.92;1.90;;;14.40;82.60;;;;;;6273796;22;20000;-71
2023/08/20 16:15:19;;;;;;;3.53;2.08;;;14.30;82.70;;;;;;6274874;22;20007;-71
2023/08/20 16:17:47;;;;;;;3.75;1.70;;;14.30;82.80;;;;;;6274147;22;20031;-71
2023/08/20 16:20:14;;;;;;;3.33;2.00;;;14.30;83.00;;;;;;6275868;22;20002;-70
2023/08/20 16:22:41;;;;;;;5.30;2.20;;;14.30;83.20;;;;;;6274247;22;20062;-71
2023/08/20 16:25:09;;;;;;;3.83;2.45;;;14.20;83.20;;;;;;6273951;22;20000;-71
2023/08/20 16:27:36;;;;;;;3.92;2.10;;;14.20;83.30;;;;;;6274234;22;20074;-71
2023/08/20 16:30:03;;;;;;;5.88;2.38;;;14.20;83.20;;;;;;6276077;22;20012;-71
2023/08/20 16:32:31;;;;;;;4.50;2.30;;;14.20;83.20;;;;;;6274420;22;20022;-71
2023/08/20 16:34:58;;;;;;;5.30;2.30;;;14.20;83.20;;;;;;6274807;22;20000;-70
2023/08/20 16:37:25;;;;;;;4.10;2.10;;;14.10;83.20;;;;;;6273870;22;20015;-72
2023/08/20 16:39:52;;;;;;;3.13;2.40;;;14.10;83.20;;;;;;6274536;22;20433;-72
2023/08/20 16:42:19;;;;;;;3.05;1.98;;;14.00;83.40;;;;;;6276500;22;20008;-72
2023/08/20 16:44:47;;;;;;;4.25;2.10;;;14.00;83.40;;;;;;6272992;22;20439;-73
2023/08/20 16:47:14;;;;;;;4.07;1.85;;;14.00;83.50;;;;;;6274325;22;20018;-73
2023/08/20 16:49:44;;;;;;;3.45;2.28;;;13.90;83.50;;;;;;6275308;22;20090;-73
2023/08/20 16:52:11;;;;;;;2.85;1.95;;;13.90;83.50;;;;;;6274448;22;20004;-73
2023/08/20 16:54:39;;;;;;;2.95;2.20;;;14.00;83.30;;;;;;6274592;22;20004;-72
2023/08/20 16:57:06;;;;;;;6.43;2.03;;;13.90;83.20;;;;;;6248074;22;20007;-73